createdAt,value
2019-03-10T00:00:09.688Z,10.67
2019-03-10T00:02:38.372Z,10.57
2019-03-10T00:05:07.224Z,10.00
2019-03-10T00:07:35.818Z,13.27
2019-03-10T00:10:06.354Z,10.27
2019-03-10T00:12:36.906Z,10.60
2019-03-10T00:15:06.015Z,14.43
2019-03-10T00:17:34.478Z,11.03
2019-03-10T00:20:03.816Z,10.87
2019-03-10T00:22:32.368Z,11.97
2019-03-10T00:25:01.267Z,10.97
2019-03-10T00:27:30.009Z,9.93
2019-03-10T00:29:58.379Z,12.57
2019-03-10T00:32:27.128Z,9.03
2019-03-10T00:34:55.908Z,11.17
2019-03-10T00:37:24.301Z,9.73
2019-03-10T00:40:59.882Z,9.43
2019-03-10T00:44:24.403Z,8.40
2019-03-10T00:47:53.185Z,8.80
2019-03-10T00:51:16.249Z,7.47
2019-03-10T00:53:45.002Z,8.70
2019-03-10T00:56:13.962Z,7.97
2019-03-10T00:58:42.744Z,8.63
2019-03-10T01:01:11.262Z,10.37
2019-03-10T01:03:39.926Z,8.07
2019-03-10T01:06:08.386Z,8.07
2019-03-10T01:08:37.192Z,10.10
2019-03-10T01:11:08.839Z,7.67
2019-03-10T01:13:37.494Z,7.13
2019-03-10T01:16:08.130Z,7.50
2019-03-10T01:18:37.241Z,7.37
2019-03-10T01:21:05.912Z,7.73
2019-03-10T01:23:38.284Z,7.10
2019-03-10T01:26:07.028Z,6.13
2019-03-10T01:28:35.954Z,7.20
2019-03-10T01:31:16.207Z,8.70
2019-03-10T01:34:12.065Z,7.23
2019-03-10T01:36:40.482Z,7.23
2019-03-10T01:39:09.752Z,7.00
2019-03-10T01:41:38.260Z,6.37
2019-03-10T01:44:06.987Z,7.57
2019-03-10T01:46:35.810Z,7.13
2019-03-10T01:49:04.418Z,5.50
2019-03-10T01:51:34.658Z,5.30
2019-03-10T01:54:03.337Z,6.40
2019-03-10T01:56:32.039Z,7.60
2019-03-10T01:59:00.551Z,5.90
2019-03-10T02:01:29.443Z,6.87
2019-03-10T02:03:58.071Z,6.30
2019-03-10T02:06:26.514Z,6.67
2019-03-10T02:08:55.263Z,7.10
2019-03-10T02:11:23.682Z,7.47
2019-03-10T02:13:52.289Z,6.17
2019-03-10T02:16:20.928Z,7.13
2019-03-10T02:18:49.314Z,5.60
2019-03-10T02:21:17.709Z,6.10
2019-03-10T02:23:47.920Z,6.67
2019-03-10T02:26:17.756Z,7.00
2019-03-10T02:28:46.392Z,6.73
2019-03-10T02:31:15.048Z,6.70
2019-03-10T02:33:43.552Z,6.57
2019-03-10T02:36:12.012Z,6.73
2019-03-10T02:38:41.693Z,6.10
2019-03-10T02:44:52.363Z,6.27
2019-03-10T02:47:22.670Z,5.77
2019-03-10T02:49:51.409Z,8.30
2019-03-10T02:52:19.982Z,8.60
2019-03-10T02:54:48.590Z,6.30
2019-03-10T02:57:18.363Z,8.13
2019-03-10T02:59:46.848Z,9.03
2019-03-10T03:02:15.218Z,6.10
2019-03-10T03:04:43.999Z,6.33
2019-03-10T03:07:12.441Z,6.80
2019-03-10T03:09:41.059Z,7.00
2019-03-10T03:12:09.575Z,9.63
2019-03-10T03:14:38.625Z,7.20
2019-03-10T03:17:07.122Z,7.20
2019-03-10T03:19:35.939Z,5.53
2019-03-10T03:22:04.575Z,7.13
2019-03-10T03:24:33.119Z,7.30
2019-03-10T03:27:02.697Z,6.07
2019-03-10T03:29:31.349Z,6.60
2019-03-10T03:32:00.014Z,6.83
2019-03-10T03:34:29.687Z,8.13
2019-03-10T03:36:58.524Z,7.13
2019-03-10T03:39:39.965Z,7.83
2019-03-10T03:42:08.693Z,5.83
2019-03-10T03:44:38.129Z,6.27
2019-03-10T03:47:06.976Z,8.47
2019-03-10T03:49:35.666Z,7.57
2019-03-10T03:52:04.660Z,9.47
2019-03-10T03:54:33.532Z,8.10
2019-03-10T03:57:02.054Z,7.03
2019-03-10T03:59:30.783Z,8.10
2019-03-10T04:02:12.921Z,8.27
2019-03-10T04:04:41.667Z,7.87
2019-03-10T04:07:10.356Z,8.50
2019-03-10T04:09:38.788Z,10.07
2019-03-10T04:12:07.505Z,5.97
2019-03-10T04:14:36.035Z,8.20
2019-03-10T04:17:04.504Z,8.60
2019-03-10T04:19:33.645Z,7.27
2019-03-10T04:22:03.884Z,8.70
2019-03-10T04:24:32.344Z,7.40
2019-03-10T04:27:00.966Z,7.20
2019-03-10T04:29:29.413Z,6.67
2019-03-10T04:31:58.140Z,7.80
2019-03-10T04:34:26.713Z,6.95
2019-03-10T04:36:55.368Z,5.73
2019-03-10T04:39:23.784Z,7.45
2019-03-10T04:41:52.608Z,6.42
2019-03-10T04:44:21.130Z,6.83
2019-03-10T04:46:49.869Z,8.03
2019-03-10T04:49:18.334Z,5.90
2019-03-10T04:51:47.762Z,6.00
2019-03-10T04:54:19.065Z,5.70
2019-03-10T04:56:55.194Z,6.12
2019-03-10T04:59:23.890Z,6.17
2019-03-10T05:01:52.478Z,7.63
2019-03-10T05:04:21.145Z,5.40
2019-03-10T05:06:49.984Z,6.30
2019-03-10T05:09:18.554Z,6.00
2019-03-10T05:11:46.925Z,5.70
2019-03-10T05:14:15.613Z,7.60
2019-03-10T05:16:44.366Z,7.83
2019-03-10T05:19:13.920Z,6.50
2019-03-10T05:21:42.428Z,9.17
2019-03-10T05:24:13.919Z,5.95
2019-03-10T05:26:42.345Z,7.50
2019-03-10T05:29:12.529Z,11.95
2019-03-10T05:31:40.998Z,7.28
2019-03-10T05:34:09.405Z,11.30
2019-03-10T05:36:38.011Z,9.30
2019-03-10T05:39:07.794Z,7.78
2019-03-10T05:41:36.544Z,7.30
2019-03-10T05:44:05.584Z,7.15
2019-03-10T05:46:34.067Z,7.50
2019-03-10T05:49:02.592Z,8.43
2019-03-10T05:51:32.786Z,8.50
2019-03-10T05:54:01.607Z,7.40
2019-03-10T05:56:30.342Z,8.77
2019-03-10T05:59:00.710Z,8.30
2019-03-10T06:01:29.446Z,10.60
2019-03-10T06:03:58.271Z,8.17
2019-03-10T06:06:27.550Z,7.77
2019-03-10T06:08:57.759Z,7.80
2019-03-10T06:11:26.361Z,11.57
2019-03-10T06:13:54.761Z,12.57
2019-03-10T06:16:23.619Z,10.03
2019-03-10T06:18:52.175Z,8.90
2019-03-10T06:21:20.765Z,8.93
2019-03-10T06:23:49.431Z,8.87
2019-03-10T06:26:18.833Z,11.53
2019-03-10T06:28:47.407Z,9.00
2019-03-10T06:31:16.282Z,10.30
2019-03-10T06:33:46.520Z,11.60
2019-03-10T06:36:15.105Z,15.60
2019-03-10T06:38:43.642Z,12.40
2019-03-10T06:41:12.175Z,9.37
2019-03-10T06:43:42.235Z,10.53
2019-03-10T06:46:11.609Z,11.90
2019-03-10T06:48:40.095Z,12.50
2019-03-10T06:51:08.688Z,13.90
2019-03-10T06:53:42.709Z,13.30
2019-03-10T06:56:13.419Z,13.20
2019-03-10T06:58:42.077Z,16.03
2019-03-10T07:01:10.867Z,13.83
2019-03-10T07:03:39.248Z,14.07
2019-03-10T07:06:07.769Z,17.90
2019-03-10T07:08:36.563Z,15.47
2019-03-10T07:11:05.451Z,15.13
2019-03-10T07:13:33.896Z,15.77
2019-03-10T07:16:02.510Z,16.97
2019-03-10T07:18:32.917Z,18.00
2019-03-10T07:21:01.325Z,19.77
2019-03-10T07:23:37.244Z,12.53
2019-03-10T07:26:06.685Z,12.97
2019-03-10T07:28:47.709Z,12.47
2019-03-10T07:31:28.890Z,10.43
2019-03-10T07:34:22.866Z,9.87
2019-03-10T07:37:11.110Z,12.47
2019-03-10T07:39:58.068Z,11.60
2019-03-10T07:42:50.618Z,10.40
2019-03-10T07:45:30.081Z,10.23
2019-03-10T07:48:17.776Z,10.43
2019-03-10T07:51:04.494Z,9.33
2019-03-10T07:53:54.031Z,12.83
2019-03-10T07:56:35.605Z,11.80
2019-03-10T07:59:32.480Z,10.30
2019-03-10T08:02:23.216Z,9.87
2019-03-10T08:05:20.205Z,9.87
2019-03-10T08:08:13.453Z,11.40
2019-03-10T08:11:06.591Z,11.57
2019-03-10T08:13:51.532Z,10.77
2019-03-10T08:16:42.680Z,10.23
2019-03-10T08:19:39.810Z,10.97
2019-03-10T08:22:31.127Z,12.90
2019-03-10T08:25:08.921Z,12.10
2019-03-10T08:28:12.654Z,11.20
2019-03-10T08:31:00.919Z,10.83
2019-03-10T08:33:40.946Z,10.33
2019-03-10T08:36:23.028Z,10.57
2019-03-10T08:39:20.341Z,10.17
2019-03-10T08:41:55.516Z,9.20
2019-03-10T08:44:55.795Z,9.53
2019-03-10T08:47:39.791Z,11.43
2019-03-10T08:50:18.957Z,9.83
2019-03-10T08:52:58.160Z,9.23
2019-03-10T08:55:39.430Z,9.67
2019-03-10T08:58:30.102Z,8.90
2019-03-10T09:01:21.403Z,9.33
2019-03-10T09:04:08.212Z,8.57
2019-03-10T09:06:55.096Z,10.27
2019-03-10T09:09:31.758Z,9.77
2019-03-10T09:12:07.486Z,11.03
2019-03-10T09:14:45.262Z,17.27
2019-03-10T09:17:37.623Z,9.23
2019-03-10T09:20:28.899Z,12.37
2019-03-10T09:23:20.054Z,8.57
2019-03-10T09:26:02.262Z,10.20
2019-03-10T09:28:49.097Z,9.67
2019-03-10T09:31:46.383Z,10.63
2019-03-10T09:34:31.065Z,9.17
2019-03-10T09:37:37.131Z,9.60
2019-03-10T09:40:16.377Z,10.00
2019-03-10T09:43:04.995Z,9.30
2019-03-10T09:45:40.284Z,9.20
2019-03-10T09:48:34.570Z,8.50
2019-03-10T09:51:25.650Z,11.13
2019-03-10T09:54:21.612Z,10.77
2019-03-10T09:57:24.032Z,9.13
2019-03-10T10:00:05.047Z,9.33
2019-03-10T10:03:06.875Z,9.40
2019-03-10T10:05:42.901Z,8.70
2019-03-10T10:08:36.758Z,14.80
2019-03-10T10:11:23.942Z,9.30
2019-03-10T10:14:18.171Z,10.80
2019-03-10T10:17:12.451Z,9.90
2019-03-10T10:20:08.463Z,10.00
2019-03-10T10:22:46.638Z,8.53
2019-03-10T10:25:20.020Z,9.10
2019-03-10T10:28:15.983Z,16.97
2019-03-10T10:30:55.465Z,10.33
2019-03-10T10:33:43.848Z,10.00
2019-03-10T10:36:32.360Z,13.37
2019-03-10T10:39:22.527Z,10.40
2019-03-10T10:42:08.310Z,9.37
2019-03-10T10:45:11.605Z,10.00
2019-03-10T10:48:14.689Z,8.73
2019-03-10T10:51:05.465Z,9.27
2019-03-10T10:53:53.058Z,7.80
2019-03-10T10:56:51.809Z,9.70
2019-03-10T10:59:27.262Z,10.10
2019-03-10T11:02:15.123Z,15.87
2019-03-10T11:04:55.846Z,8.23
2019-03-10T11:07:35.830Z,9.07
2019-03-10T11:10:28.307Z,8.70
2019-03-10T11:13:18.863Z,7.53
2019-03-10T11:16:24.048Z,11.97
2019-03-10T11:19:24.108Z,9.20
2019-03-10T11:22:07.501Z,8.50
2019-03-10T11:24:43.585Z,9.73
2019-03-10T11:27:46.957Z,8.77
2019-03-10T11:30:32.588Z,7.57
2019-03-10T11:33:29.956Z,7.30
2019-03-10T11:36:15.739Z,9.17
2019-03-10T11:39:13.131Z,6.60
2019-03-10T11:41:52.252Z,6.80
2019-03-10T11:44:39.221Z,7.13
2019-03-10T11:47:28.972Z,8.90
2019-03-10T11:50:17.784Z,7.00
2019-03-10T11:53:19.507Z,7.33
2019-03-10T11:55:58.624Z,8.17
2019-03-10T11:58:36.037Z,9.13
2019-03-10T12:01:24.339Z,9.47
2019-03-10T12:04:27.568Z,7.10
2019-03-10T12:07:21.820Z,5.57
2019-03-10T12:09:51.291Z,7.17
2019-03-10T12:12:19.778Z,7.53
2019-03-10T12:14:48.540Z,6.77
2019-03-10T12:17:17.384Z,6.60
2019-03-10T12:19:47.798Z,5.40
2019-03-10T12:22:17.653Z,6.30
2019-03-10T12:24:47.960Z,10.33
2019-03-10T12:27:16.633Z,7.43
2019-03-10T12:29:45.026Z,6.13
2019-03-10T12:32:14.151Z,6.93
2019-03-10T12:34:42.706Z,5.90
2019-03-10T12:37:11.487Z,8.13
2019-03-10T12:39:39.892Z,5.97
2019-03-10T12:42:08.524Z,5.30
2019-03-10T12:44:37.332Z,4.60
2019-03-10T12:47:06.156Z,3.93
2019-03-10T12:49:34.759Z,5.70
2019-03-10T12:52:03.338Z,5.30
2019-03-10T12:54:31.850Z,5.00
2019-03-10T12:57:00.570Z,4.70
2019-03-10T12:59:29.308Z,5.70
2019-03-10T13:01:57.997Z,6.40
2019-03-10T13:04:26.509Z,5.60
2019-03-10T13:06:56.368Z,7.60
2019-03-10T13:09:24.812Z,6.10
2019-03-10T13:11:55.596Z,5.57
2019-03-10T13:14:24.395Z,4.33
2019-03-10T13:16:55.797Z,6.17
2019-03-10T13:19:26.734Z,5.67
2019-03-10T13:21:55.299Z,3.50
2019-03-10T13:24:24.028Z,7.60
2019-03-10T13:26:52.672Z,4.10
2019-03-10T13:29:21.339Z,5.80
2019-03-10T13:31:50.749Z,4.33
2019-03-10T13:34:22.083Z,3.90
2019-03-10T13:36:51.615Z,4.77
2019-03-10T13:39:20.330Z,3.80
2019-03-10T13:41:49.107Z,3.70
2019-03-10T13:44:17.540Z,7.30
2019-03-10T13:46:46.270Z,4.53
2019-03-10T13:49:16.482Z,6.10
2019-03-10T13:51:46.764Z,4.77
2019-03-10T13:54:15.501Z,4.57
2019-03-10T13:56:45.206Z,4.73
2019-03-10T13:59:13.749Z,4.90
2019-03-10T14:01:42.678Z,5.23
2019-03-10T14:04:11.334Z,4.33
2019-03-10T14:06:42.096Z,6.17
2019-03-10T14:09:12.409Z,4.00
2019-03-10T14:11:40.985Z,3.83
2019-03-10T14:14:09.614Z,5.17
2019-03-10T14:16:40.165Z,4.50
2019-03-10T14:19:10.465Z,4.63
2019-03-10T14:21:43.154Z,3.77
2019-03-10T14:24:11.682Z,3.63
2019-03-10T14:26:40.285Z,3.90
2019-03-10T14:29:08.802Z,4.83
2019-03-10T14:31:39.117Z,7.63
2019-03-10T14:34:07.796Z,6.40
2019-03-10T14:36:38.988Z,4.20
2019-03-10T14:39:07.787Z,5.80
2019-03-10T14:41:53.695Z,4.30
2019-03-10T14:44:24.859Z,5.13
2019-03-10T14:46:53.424Z,3.80
2019-03-10T14:49:23.515Z,6.63
2019-03-10T14:51:52.432Z,5.43
2019-03-10T14:54:20.972Z,5.70
2019-03-10T14:56:49.573Z,4.87
2019-03-10T14:59:18.854Z,4.43
2019-03-10T15:01:47.712Z,8.00
2019-03-10T15:04:20.934Z,5.33
2019-03-10T15:06:50.475Z,4.33
2019-03-10T15:09:18.962Z,7.03
2019-03-10T15:11:47.517Z,4.87
2019-03-10T15:14:21.052Z,6.60
2019-03-10T15:16:49.679Z,5.40
2019-03-10T15:19:18.184Z,4.43
2019-03-10T15:21:47.211Z,10.33
2019-03-10T15:24:17.320Z,13.07
2019-03-10T15:26:47.041Z,6.27
2019-03-10T15:29:15.758Z,4.73
2019-03-10T15:31:45.126Z,6.20
2019-03-10T15:34:14.259Z,6.60
2019-03-10T15:36:47.805Z,4.83
2019-03-10T15:39:19.067Z,4.67
2019-03-10T15:41:50.005Z,8.47
2019-03-10T15:44:19.951Z,6.50
2019-03-10T15:46:50.676Z,6.90
2019-03-10T15:49:19.529Z,5.70
2019-03-10T15:51:48.402Z,8.10
2019-03-10T15:54:16.900Z,8.63
2019-03-10T15:56:45.681Z,5.50
2019-03-10T15:59:14.373Z,3.70
2019-03-10T16:01:42.963Z,4.47
2019-03-10T16:04:21.800Z,4.60
2019-03-10T16:06:50.652Z,3.83
2019-03-10T16:09:19.193Z,3.27
2019-03-10T16:11:48.098Z,3.83
2019-03-10T16:14:16.970Z,5.07
2019-03-10T16:16:45.660Z,4.03
2019-03-10T16:19:14.247Z,3.97
2019-03-10T16:21:44.251Z,4.63
2019-03-10T16:24:12.928Z,4.00
2019-03-10T16:26:41.491Z,5.10
2019-03-10T16:29:12.790Z,6.40
2019-03-10T16:31:41.683Z,4.80
2019-03-10T16:34:10.327Z,3.30
2019-03-10T16:36:39.183Z,3.83
2019-03-10T16:39:09.943Z,6.50
2019-03-10T16:41:38.528Z,6.63
2019-03-10T16:44:08.840Z,5.10
2019-03-10T16:46:40.125Z,3.30
2019-03-10T16:49:08.712Z,3.60
2019-03-10T16:51:37.793Z,3.00
2019-03-10T16:54:09.258Z,5.80
2019-03-10T16:56:39.755Z,7.23
2019-03-10T16:59:08.646Z,3.63
2019-03-10T17:01:37.281Z,6.30
2019-03-10T17:04:05.908Z,4.27
2019-03-10T17:06:34.871Z,4.10
2019-03-10T17:09:16.534Z,5.17
2019-03-10T17:11:45.186Z,3.97
2019-03-10T17:14:14.078Z,4.13
2019-03-10T17:16:45.149Z,7.10
2019-03-10T17:19:16.402Z,5.57
2019-03-10T17:21:49.578Z,8.60
2019-03-10T17:24:18.323Z,18.97
2019-03-10T17:26:47.065Z,13.57
2019-03-10T17:29:15.809Z,5.70
2019-03-10T17:31:44.551Z,7.20
2019-03-10T17:34:13.570Z,6.57
2019-03-10T17:37:01.735Z,5.40
2019-03-10T17:39:30.653Z,11.67
2019-03-10T17:41:59.254Z,5.90
2019-03-10T17:44:28.376Z,4.60
2019-03-10T17:46:57.423Z,4.10
2019-03-10T17:49:26.156Z,4.53
2019-03-10T17:51:55.097Z,8.00
2019-03-10T17:54:23.922Z,5.60
2019-03-10T17:56:52.657Z,4.87
2019-03-10T17:59:22.474Z,9.40
2019-03-10T18:01:51.176Z,7.17
2019-03-10T18:04:20.197Z,6.00
2019-03-10T18:06:48.885Z,5.97
2019-03-10T18:09:17.761Z,8.77
2019-03-10T18:11:46.359Z,11.37
2019-03-10T18:14:14.967Z,8.10
2019-03-10T18:16:43.763Z,13.60
2019-03-10T18:19:12.412Z,11.27
2019-03-10T18:21:40.980Z,11.90
2019-03-10T18:24:13.504Z,12.77
2019-03-10T18:26:42.111Z,14.87
2019-03-10T18:29:10.534Z,13.40
2019-03-10T18:31:39.628Z,13.07
2019-03-10T18:34:09.125Z,12.00
2019-03-10T18:36:38.024Z,11.60
2019-03-10T18:39:07.105Z,11.93
2019-03-10T18:41:35.911Z,11.00
2019-03-10T18:44:04.666Z,11.47
2019-03-10T18:46:34.353Z,11.53
2019-03-10T18:49:03.957Z,11.33
2019-03-10T18:51:32.492Z,16.93
2019-03-10T18:54:10.210Z,15.03
2019-03-10T18:56:40.486Z,14.00
2019-03-10T18:59:09.239Z,11.53
2019-03-10T19:01:37.673Z,13.10
2019-03-10T19:04:06.240Z,12.83
2019-03-10T19:06:35.223Z,11.03
2019-03-10T19:09:06.488Z,10.60
2019-03-10T19:11:35.403Z,11.00
2019-03-10T19:14:05.624Z,12.53
2019-03-10T19:16:35.556Z,11.60
2019-03-10T19:19:04.381Z,11.57
2019-03-10T19:21:32.901Z,11.77
2019-03-10T19:24:02.232Z,11.80
2019-03-10T19:26:31.646Z,14.70
2019-03-10T19:29:00.241Z,13.20
2019-03-10T19:31:29.125Z,13.50
2019-03-10T19:33:57.708Z,13.47
2019-03-10T19:36:26.503Z,13.53
2019-03-10T19:38:55.332Z,12.90
2019-03-10T19:41:23.981Z,14.20
2019-03-10T19:43:52.410Z,15.63
2019-03-10T19:46:22.964Z,13.97
2019-03-10T19:48:51.410Z,13.57
2019-03-10T19:51:20.397Z,13.20
2019-03-10T19:53:48.829Z,11.83
2019-03-10T19:56:18.780Z,11.63
2019-03-10T19:58:48.043Z,11.90
2019-03-10T20:01:18.310Z,17.03
2019-03-10T20:03:47.007Z,12.27
2019-03-10T20:06:15.567Z,14.30
2019-03-10T20:08:44.319Z,5.90
2019-03-10T20:11:13.988Z,6.20
2019-03-10T20:13:46.140Z,14.33
2019-03-10T20:16:16.392Z,18.10
2019-03-10T20:18:45.286Z,22.60
2019-03-10T20:21:13.949Z,18.90
2019-03-10T20:23:42.574Z,13.50
2019-03-10T20:26:11.726Z,16.10
2019-03-10T20:28:40.350Z,12.17
2019-03-10T20:31:09.125Z,14.20
2019-03-10T20:33:37.914Z,11.87
2019-03-10T20:36:06.979Z,10.53
2019-03-10T20:38:35.521Z,8.10
2019-03-10T20:41:04.352Z,5.97
2019-03-10T20:43:33.329Z,7.07
2019-03-10T20:46:02.044Z,9.57
2019-03-10T20:48:30.606Z,9.07
2019-03-10T20:50:59.382Z,7.13
2019-03-10T20:53:30.510Z,12.77
2019-03-10T20:56:00.689Z,10.23
2019-03-10T20:58:29.272Z,9.10
2019-03-10T21:00:58.693Z,10.60
2019-03-10T21:03:27.604Z,10.30
2019-03-10T21:05:58.057Z,7.83
2019-03-10T21:08:26.601Z,8.03
2019-03-10T21:10:55.704Z,8.90
2019-03-10T21:13:24.135Z,6.87
2019-03-10T21:15:53.707Z,8.70
2019-03-10T21:18:22.614Z,6.73
2019-03-10T21:20:51.056Z,6.77
2019-03-10T21:23:22.199Z,6.80
2019-03-10T21:25:51.010Z,7.20
2019-03-10T21:28:19.495Z,7.97
2019-03-10T21:30:48.247Z,6.63
2019-03-10T21:33:16.724Z,7.17
2019-03-10T21:35:45.377Z,6.43
2019-03-10T21:38:14.061Z,6.63
2019-03-10T21:40:48.454Z,5.87
2019-03-10T21:43:17.337Z,8.10
2019-03-10T21:45:46.328Z,8.27
2019-03-10T21:48:15.750Z,7.47
2019-03-10T21:50:44.344Z,8.63
2019-03-10T21:53:12.736Z,8.03
2019-03-10T21:55:41.400Z,8.40
2019-03-10T21:58:09.900Z,9.20
2019-03-10T22:00:38.574Z,7.30
2019-03-10T22:03:07.081Z,7.87
2019-03-10T22:05:36.218Z,8.40
2019-03-10T22:08:05.263Z,6.93
2019-03-10T22:10:35.663Z,9.13
2019-03-10T22:13:04.070Z,8.03
2019-03-10T22:15:41.036Z,7.17
2019-03-10T22:18:04.710Z,8.93
2019-03-10T22:20:33.164Z,8.87
2019-03-10T22:23:01.603Z,7.13
2019-03-10T22:25:30.503Z,4.70
2019-03-10T22:27:59.275Z,4.67
2019-03-10T22:30:27.744Z,2.93
2019-03-10T22:32:56.670Z,3.40
2019-03-10T22:35:25.080Z,5.20
2019-03-10T22:37:53.756Z,7.10
2019-03-10T22:40:22.556Z,6.97
2019-03-10T22:42:51.363Z,4.33
2019-03-10T22:45:20.194Z,5.07
2019-03-10T22:47:48.935Z,5.37
2019-03-10T22:50:17.493Z,6.43
2019-03-10T22:52:46.237Z,5.17
2019-03-10T22:55:15.210Z,6.03
2019-03-10T22:57:45.349Z,7.10
2019-03-10T23:00:18.599Z,5.43
2019-03-10T23:02:47.251Z,4.20
2019-03-10T23:05:17.236Z,4.10
2019-03-10T23:07:45.750Z,8.10
2019-03-10T23:10:14.747Z,2.90
2019-03-10T23:12:44.991Z,2.40
2019-03-10T23:15:15.321Z,1.60
2019-03-10T23:17:44.420Z,2.67
2019-03-10T23:20:13.079Z,1.47
2019-03-10T23:22:42.429Z,1.57
2019-03-10T23:25:11.371Z,1.07
2019-03-10T23:27:39.920Z,1.63
2019-03-10T23:30:11.206Z,1.40
2019-03-10T23:32:39.724Z,1.57
2019-03-10T23:35:08.401Z,1.20
2019-03-10T23:37:36.828Z,1.63
2019-03-10T23:40:05.735Z,1.80
2019-03-10T23:42:34.769Z,1.30
2019-03-10T23:45:04.590Z,1.27
2019-03-10T23:47:35.013Z,1.20
2019-03-10T23:50:04.483Z,2.30
2019-03-10T23:52:33.390Z,1.77
2019-03-10T23:55:01.966Z,1.50
2019-03-10T23:57:30.843Z,1.10
2019-03-10T23:59:59.255Z,1.47
